首页
METAR-TAF:

METAR-TAF

机场 :

廊曼国际机场

曼谷, 泰国

纬度: 13-54-45N, 经度: 100-36-24E, 海拔: 4米

当前天气观测

该预报发布于42分钟前的05:00 UTC
风速6节,风向北转东北,在北转西北之间变化
温度 33°C
湿度 63%
气压 1009 hPa
能见度10公里或以上
少量云层高于2000英尺
散云层高于3500英尺

METAR: VTBD 140500Z 02006KT 340V090 9999 FEW020 SCT035 33/25 Q1009 NOSIG

时间: 12:42 (05:42 UTC)

预报

该预报发布于6小时和42分钟前的23:00 UTC
预报有效从14日的 00点(UTC)到 15日的 06点(UTC)
风速5节,风向北转西北
能見度: 8000
少量云层高于2500英尺
成为
从 14日的 03点(UTC)到 14日的 05点(UTC)
风速5节,风向西
能见度10公里或以上
成为
从 14日的 16点(UTC)到 14日的 18点(UTC)
风速5节,风向
成为
从 15日的 02点(UTC)到 15日的 04点(UTC)
风速8节,风向东转东北

TAF: VTBD 132300Z 1400/1506 34005KT 8000 FEW025 BECMG 1403/1405 28005KT 9999 BECMG 1416/1418 35005KT BECMG 1502/1504 06008KT

超过4000个机场的气象观测和天气预报(METAR&TAF报告)。

可查询的气象台以黄色和红色小点在地图上表示。

将鼠标移到小点上方,可查看气象台名称。

然后点击查看天气观测和预报。

如需切换地图:点击带黑十字的绿色按钮放大地图;点击带横线的绿色按钮缩小地图;或者点击绿色箭头查看邻近地区的地图。


METAR-TAF: